sensor_id;sensor_type;location;lat;lon;timestamp;P1;durP1;ratioP1;P2;durP2;ratioP2
38379;SDS011;38377;47.418;18.882;2022-09-21T00:01:32;7.30;;;6.20;;
38379;SDS011;38377;47.418;18.882;2022-09-21T00:03:59;8.45;;;6.00;;
38379;SDS011;38377;47.418;18.882;2022-09-21T00:06:28;7.32;;;5.78;;
38379;SDS011;38377;47.418;18.882;2022-09-21T00:08:56;7.00;;;6.18;;
38379;SDS011;38377;47.418;18.882;2022-09-21T00:11:31;6.57;;;5.75;;
38379;SDS011;38377;47.418;18.882;2022-09-21T00:13:59;7.18;;;5.70;;
38379;SDS011;38377;47.418;18.882;2022-09-21T00:16:28;8.20;;;6.03;;
38379;SDS011;38377;47.418;18.882;2022-09-21T00:18:55;6.75;;;5.80;;
38379;SDS011;38377;47.418;18.882;2022-09-21T00:21:21;7.88;;;6.20;;
38379;SDS011;38377;47.418;18.882;2022-09-21T00:23:47;7.78;;;6.43;;
38379;SDS011;38377;47.418;18.882;2022-09-21T00:26:17;7.75;;;6.68;;
38379;SDS011;38377;47.418;18.882;2022-09-21T00:28:44;7.78;;;6.85;;
38379;SDS011;38377;47.418;18.882;2022-09-21T00:31:11;9.43;;;5.82;;
38379;SDS011;38377;47.418;18.882;2022-09-21T00:33:39;6.32;;;5.57;;
38379;SDS011;38377;47.418;18.882;2022-09-21T00:36:11;6.00;;;5.10;;
38379;SDS011;38377;47.418;18.882;2022-09-21T00:38:39;7.35;;;5.40;;
38379;SDS011;38377;47.418;18.882;2022-09-21T00:41:05;5.97;;;5.18;;
38379;SDS011;38377;47.418;18.882;2022-09-21T00:43:33;8.18;;;5.85;;
38379;SDS011;38377;47.418;18.882;2022-09-21T00:46:24;5.70;;;4.85;;
38379;SDS011;38377;47.418;18.882;2022-09-21T00:48:55;6.53;;;5.00;;
38379;SDS011;38377;47.418;18.882;2022-09-21T00:51:22;6.10;;;4.30;;
38379;SDS011;38377;47.418;18.882;2022-09-21T00:53:50;5.63;;;4.95;;
38379;SDS011;38377;47.418;18.882;2022-09-21T00:56:20;6.47;;;5.22;;
38379;SDS011;38377;47.418;18.882;2022-09-21T00:58:47;5.78;;;5.15;;
38379;SDS011;38377;47.418;18.882;2022-09-21T01:01:14;5.63;;;4.80;;
38379;SDS011;38377;47.418;18.882;2022-09-21T01:03:42;9.52;;;5.18;;
38379;SDS011;38377;47.418;18.882;2022-09-21T01:06:10;6.35;;;5.18;;
38379;SDS011;38377;47.418;18.882;2022-09-21T01:08:37;6.57;;;5.18;;
38379;SDS011;38377;47.418;18.882;2022-09-21T01:16:13;8.55;;;5.13;;
38379;SDS011;38377;47.418;18.882;2022-09-21T01:18:50;6.15;;;5.00;;
38379;SDS011;38377;47.418;18.882;2022-09-21T01:21:47;6.43;;;4.30;;
38379;SDS011;38377;47.418;18.882;2022-09-21T01:27:17;5.55;;;4.68;;
38379;SDS011;38377;47.418;18.882;2022-09-21T01:30:10;7.72;;;4.63;;
38379;SDS011;38377;47.418;18.882;2022-09-21T01:33:04;5.55;;;4.78;;
38379;SDS011;38377;47.418;18.882;2022-09-21T01:35:45;5.18;;;4.35;;
38379;SDS011;38377;47.418;18.882;2022-09-21T01:38:14;5.47;;;4.55;;
38379;SDS011;38377;47.418;18.882;2022-09-21T01:40:46;6.20;;;4.82;;
38379;SDS011;38377;47.418;18.882;2022-09-21T01:43:20;6.15;;;4.50;;
38379;SDS011;38377;47.418;18.882;2022-09-21T01:46:17;6.43;;;5.03;;
38379;SDS011;38377;47.418;18.882;2022-09-21T01:48:46;7.13;;;4.93;;
38379;SDS011;38377;47.418;18.882;2022-09-21T01:51:16;5.47;;;4.50;;
38379;SDS011;38377;47.418;18.882;2022-09-21T01:53:51;6.35;;;4.95;;
38379;SDS011;38377;47.418;18.882;2022-09-21T01:56:22;5.82;;;4.53;;
38379;SDS011;38377;47.418;18.882;2022-09-21T02:01:46;8.77;;;5.22;;
38379;SDS011;38377;47.418;18.882;2022-09-21T02:04:16;6.57;;;4.60;;
38379;SDS011;38377;47.418;18.882;2022-09-21T02:06:44;5.63;;;4.63;;
38379;SDS011;38377;47.418;18.882;2022-09-21T02:09:11;5.75;;;4.80;;
38379;SDS011;38377;47.418;18.882;2022-09-21T02:11:38;5.35;;;4.82;;
38379;SDS011;38377;47.418;18.882;2022-09-21T02:14:07;6.53;;;5.28;;
38379;SDS011;38377;47.418;18.882;2022-09-21T02:16:39;8.00;;;4.95;;
38379;SDS011;38377;47.418;18.882;2022-09-21T02:24:47;7.13;;;5.80;;
38379;SDS011;38377;47.418;18.882;2022-09-21T02:30:15;6.10;;;4.75;;
38379;SDS011;38377;47.418;18.882;2022-09-21T02:43:38;5.40;;;4.47;;
38379;SDS011;38377;47.418;18.882;2022-09-21T02:46:10;5.78;;;4.60;;
38379;SDS011;38377;47.418;18.882;2022-09-21T02:49:02;7.13;;;4.97;;
38379;SDS011;38377;47.418;18.882;2022-09-21T02:51:41;5.78;;;4.95;;
38379;SDS011;38377;47.418;18.882;2022-09-21T02:54:12;5.50;;;4.15;;
38379;SDS011;38377;47.418;18.882;2022-09-21T02:56:40;5.75;;;4.68;;
38379;SDS011;38377;47.418;18.882;2022-09-21T02:59:08;6.57;;;4.90;;
38379;SDS011;38377;47.418;18.882;2022-09-21T03:01:34;6.32;;;4.80;;
38379;SDS011;38377;47.418;18.882;2022-09-21T03:04:03;5.65;;;4.80;;
38379;SDS011;38377;47.418;18.882;2022-09-21T03:06:29;6.10;;;4.63;;
38379;SDS011;38377;47.418;18.882;2022-09-21T03:08:55;6.80;;;4.38;;
38379;SDS011;38377;47.418;18.882;2022-09-21T03:11:22;5.68;;;4.60;;
38379;SDS011;38377;47.418;18.882;2022-09-21T03:13:48;6.88;;;4.40;;
38379;SDS011;38377;47.418;18.882;2022-09-21T03:16:14;6.28;;;4.30;;
38379;SDS011;38377;47.418;18.882;2022-09-21T03:18:40;6.20;;;4.70;;
38379;SDS011;38377;47.418;18.882;2022-09-21T03:21:08;5.68;;;4.80;;
38379;SDS011;38377;47.418;18.882;2022-09-21T03:23:34;5.50;;;4.60;;
38379;SDS011;38377;47.418;18.882;2022-09-21T03:26:02;6.70;;;5.05;;
38379;SDS011;38377;47.418;18.882;2022-09-21T03:28:28;5.90;;;4.75;;
38379;SDS011;38377;47.418;18.882;2022-09-21T03:30:54;5.93;;;5.00;;
38379;SDS011;38377;47.418;18.882;2022-09-21T03:33:20;7.78;;;5.97;;
38379;SDS011;38377;47.418;18.882;2022-09-21T03:35:49;7.22;;;5.93;;
38379;SDS011;38377;47.418;18.882;2022-09-21T03:38:16;7.15;;;6.05;;
38379;SDS011;38377;47.418;18.882;2022-09-21T03:40:45;8.55;;;6.00;;
38379;SDS011;38377;47.418;18.882;2022-09-21T03:43:12;5.85;;;4.78;;
38379;SDS011;38377;47.418;18.882;2022-09-21T03:45:38;6.95;;;4.82;;
38379;SDS011;38377;47.418;18.882;2022-09-21T03:48:06;6.00;;;5.03;;
38379;SDS011;38377;47.418;18.882;2022-09-21T03:50:32;7.03;;;5.60;;
38379;SDS011;38377;47.418;18.882;2022-09-21T03:52:58;5.43;;;4.85;;
38379;SDS011;38377;47.418;18.882;2022-09-21T03:55:24;5.00;;;4.50;;
38379;SDS011;38377;47.418;18.882;2022-09-21T03:57:50;5.35;;;4.60;;
38379;SDS011;38377;47.418;18.882;2022-09-21T04:00:20;4.95;;;4.07;;
38379;SDS011;38377;47.418;18.882;2022-09-21T04:02:46;4.90;;;4.35;;
38379;SDS011;38377;47.418;18.882;2022-09-21T04:05:13;6.47;;;4.53;;
38379;SDS011;38377;47.418;18.882;2022-09-21T04:07:40;6.15;;;4.10;;
38379;SDS011;38377;47.418;18.882;2022-09-21T04:10:10;5.57;;;4.97;;
38379;SDS011;38377;47.418;18.882;2022-09-21T04:12:37;5.63;;;4.82;;
38379;SDS011;38377;47.418;18.882;2022-09-21T04:15:08;5.10;;;4.32;;
38379;SDS011;38377;47.418;18.882;2022-09-21T04:17:38;9.25;;;6.40;;
38379;SDS011;38377;47.418;18.882;2022-09-21T04:20:04;9.85;;;5.57;;
38379;SDS011;38377;47.418;18.882;2022-09-21T04:22:32;10.55;;;8.25;;
38379;SDS011;38377;47.418;18.882;2022-09-21T04:24:58;7.15;;;5.38;;
38379;SDS011;38377;47.418;18.882;2022-09-21T04:27:25;5.63;;;4.57;;
38379;SDS011;38377;47.418;18.882;2022-09-21T04:29:51;6.65;;;4.80;;
38379;SDS011;38377;47.418;18.882;2022-09-21T04:32:17;6.88;;;4.35;;
38379;SDS011;38377;47.418;18.882;2022-09-21T04:34:43;6.28;;;4.90;;
38379;SDS011;38377;47.418;18.882;2022-09-21T04:37:08;12.93;;;8.88;;
38379;SDS011;38377;47.418;18.882;2022-09-21T04:39:37;14.52;;;7.50;;
38379;SDS011;38377;47.418;18.882;2022-09-21T04:42:03;5.68;;;4.68;;
38379;SDS011;38377;47.418;18.882;2022-09-21T04:44:29;8.18;;;5.53;;
38379;SDS011;38377;47.418;18.882;2022-09-21T04:46:56;5.97;;;4.70;;
38379;SDS011;38377;47.418;18.882;2022-09-21T04:49:22;6.20;;;4.70;;
38379;SDS011;38377;47.418;18.882;2022-09-21T04:51:48;5.90;;;4.95;;
38379;SDS011;38377;47.418;18.882;2022-09-21T04:54:14;6.32;;;4.95;;
38379;SDS011;38377;47.418;18.882;2022-09-21T04:56:40;9.82;;;6.07;;
38379;SDS011;38377;47.418;18.882;2022-09-21T04:59:08;7.00;;;5.72;;
38379;SDS011;38377;47.418;18.882;2022-09-21T05:01:34;12.65;;;5.75;;
38379;SDS011;38377;47.418;18.882;2022-09-21T05:04:00;5.93;;;5.25;;
38379;SDS011;38377;47.418;18.882;2022-09-21T05:06:30;7.28;;;5.70;;
38379;SDS011;38377;47.418;18.882;2022-09-21T05:08:57;7.38;;;5.57;;
38379;SDS011;38377;47.418;18.882;2022-09-21T05:11:42;7.20;;;5.40;;
38379;SDS011;38377;47.418;18.882;2022-09-21T05:14:08;8.45;;;5.88;;
38379;SDS011;38377;47.418;18.882;2022-09-21T05:16:34;7.75;;;6.75;;
38379;SDS011;38377;47.418;18.882;2022-09-21T05:19:00;8.38;;;6.60;;
38379;SDS011;38377;47.418;18.882;2022-09-21T05:21:27;8.35;;;6.90;;
38379;SDS011;38377;47.418;18.882;2022-09-21T05:23:53;6.70;;;6.00;;
38379;SDS011;38377;47.418;18.882;2022-09-21T05:26:19;15.98;;;7.80;;
38379;SDS011;38377;47.418;18.882;2022-09-21T05:28:45;21.50;;;15.40;;
38379;SDS011;38377;47.418;18.882;2022-09-21T05:34:01;28.70;;;15.68;;
38379;SDS011;38377;47.418;18.882;2022-09-21T05:39:20;11.85;;;8.60;;
38379;SDS011;38377;47.418;18.882;2022-09-21T05:41:46;10.85;;;9.27;;
38379;SDS011;38377;47.418;18.882;2022-09-21T05:44:12;9.73;;;7.47;;
38379;SDS011;38377;47.418;18.882;2022-09-21T05:49:21;8.35;;;6.45;;
38379;SDS011;38377;47.418;18.882;2022-09-21T05:52:26;12.50;;;10.45;;
38379;SDS011;38377;47.418;18.882;2022-09-21T06:00:15;8.32;;;7.13;;
38379;SDS011;38377;47.418;18.882;2022-09-21T06:05:46;10.77;;;8.00;;
38379;SDS011;38377;47.418;18.882;2022-09-21T06:08:11;8.30;;;7.18;;
38379;SDS011;38377;47.418;18.882;2022-09-21T06:10:37;11.10;;;8.05;;
38379;SDS011;38377;47.418;18.882;2022-09-21T06:13:03;8.00;;;6.68;;
38379;SDS011;38377;47.418;18.882;2022-09-21T06:15:28;11.80;;;7.07;;
38379;SDS011;38377;47.418;18.882;2022-09-21T06:17:54;8.57;;;6.97;;
38379;SDS011;38377;47.418;18.882;2022-09-21T06:20:21;10.35;;;7.15;;
38379;SDS011;38377;47.418;18.882;2022-09-21T06:22:49;9.90;;;6.53;;
38379;SDS011;38377;47.418;18.882;2022-09-21T06:25:14;9.70;;;7.00;;
38379;SDS011;38377;47.418;18.882;2022-09-21T06:27:40;7.88;;;6.97;;
38379;SDS011;38377;47.418;18.882;2022-09-21T06:30:06;7.38;;;6.47;;
38379;SDS011;38377;47.418;18.882;2022-09-21T06:32:32;7.43;;;6.72;;
38379;SDS011;38377;47.418;18.882;2022-09-21T06:34:57;8.23;;;6.75;;
38379;SDS011;38377;47.418;18.882;2022-09-21T06:37:23;7.20;;;6.03;;
38379;SDS011;38377;47.418;18.882;2022-09-21T06:39:48;7.90;;;6.28;;
38379;SDS011;38377;47.418;18.882;2022-09-21T06:42:14;7.75;;;6.20;;
38379;SDS011;38377;47.418;18.882;2022-09-21T06:44:40;7.75;;;6.60;;
38379;SDS011;38377;47.418;18.882;2022-09-21T06:47:05;9.48;;;6.25;;
38379;SDS011;38377;47.418;18.882;2022-09-21T06:49:31;6.88;;;5.93;;
38379;SDS011;38377;47.418;18.882;2022-09-21T06:51:57;7.43;;;6.00;;
38379;SDS011;38377;47.418;18.882;2022-09-21T06:54:22;7.07;;;6.20;;
38379;SDS011;38377;47.418;18.882;2022-09-21T06:56:48;7.47;;;6.68;;
38379;SDS011;38377;47.418;18.882;2022-09-21T06:59:14;6.82;;;6.10;;
38379;SDS011;38377;47.418;18.882;2022-09-21T07:01:39;8.13;;;5.85;;
38379;SDS011;38377;47.418;18.882;2022-09-21T07:04:05;6.60;;;5.63;;
38379;SDS011;38377;47.418;18.882;2022-09-21T07:06:33;8.13;;;6.32;;
38379;SDS011;38377;47.418;18.882;2022-09-21T07:08:59;6.82;;;5.95;;
38379;SDS011;38377;47.418;18.882;2022-09-21T07:11:26;7.25;;;5.57;;
38379;SDS011;38377;47.418;18.882;2022-09-21T07:13:52;6.15;;;5.40;;
38379;SDS011;38377;47.418;18.882;2022-09-21T07:16:18;8.40;;;5.85;;
38379;SDS011;38377;47.418;18.882;2022-09-21T07:18:43;6.38;;;5.70;;
38379;SDS011;38377;47.418;18.882;2022-09-21T07:21:09;6.13;;;5.53;;
38379;SDS011;38377;47.418;18.882;2022-09-21T07:23:35;5.85;;;5.25;;
38379;SDS011;38377;47.418;18.882;2022-09-21T07:26:03;6.80;;;5.45;;
38379;SDS011;38377;47.418;18.882;2022-09-21T07:28:30;6.38;;;5.63;;
38379;SDS011;38377;47.418;18.882;2022-09-21T07:30:57;6.28;;;5.15;;
38379;SDS011;38377;47.418;18.882;2022-09-21T07:33:23;5.85;;;5.20;;
38379;SDS011;38377;47.418;18.882;2022-09-21T07:35:50;7.00;;;5.50;;
38379;SDS011;38377;47.418;18.882;2022-09-21T07:38:17;6.43;;;5.78;;
38379;SDS011;38377;47.418;18.882;2022-09-21T07:40:43;7.75;;;5.72;;
38379;SDS011;38377;47.418;18.882;2022-09-21T07:43:09;7.32;;;5.70;;
38379;SDS011;38377;47.418;18.882;2022-09-21T07:45:35;7.88;;;5.70;;
38379;SDS011;38377;47.418;18.882;2022-09-21T07:48:01;6.55;;;5.72;;
38379;SDS011;38377;47.418;18.882;2022-09-21T07:50:27;7.68;;;5.90;;
38379;SDS011;38377;47.418;18.882;2022-09-21T07:52:53;6.38;;;5.32;;
38379;SDS011;38377;47.418;18.882;2022-09-21T07:55:18;6.40;;;5.05;;
38379;SDS011;38377;47.418;18.882;2022-09-21T07:57:44;5.63;;;5.13;;
38379;SDS011;38377;47.418;18.882;2022-09-21T08:00:31;5.68;;;5.10;;
38379;SDS011;38377;47.418;18.882;2022-09-21T08:02:58;5.70;;;4.78;;
38379;SDS011;38377;47.418;18.882;2022-09-21T08:05:25;5.28;;;4.63;;
38379;SDS011;38377;47.418;18.882;2022-09-21T08:07:53;6.15;;;4.60;;
38379;SDS011;38377;47.418;18.882;2022-09-21T08:10:20;5.47;;;4.50;;
38379;SDS011;38377;47.418;18.882;2022-09-21T08:12:48;5.45;;;4.53;;
38379;SDS011;38377;47.418;18.882;2022-09-21T08:15:14;5.78;;;4.72;;
38379;SDS011;38377;47.418;18.882;2022-09-21T08:17:41;6.13;;;5.50;;
38379;SDS011;38377;47.418;18.882;2022-09-21T08:20:08;6.03;;;4.53;;
38379;SDS011;38377;47.418;18.882;2022-09-21T08:22:34;4.32;;;3.92;;
38379;SDS011;38377;47.418;18.882;2022-09-21T08:24:59;4.38;;;3.97;;
38379;SDS011;38377;47.418;18.882;2022-09-21T08:27:25;5.30;;;4.05;;
38379;SDS011;38377;47.418;18.882;2022-09-21T08:29:51;4.43;;;3.75;;
38379;SDS011;38377;47.418;18.882;2022-09-21T08:32:16;4.18;;;3.47;;
38379;SDS011;38377;47.418;18.882;2022-09-21T08:34:42;5.93;;;3.45;;
38379;SDS011;38377;47.418;18.882;2022-09-21T08:37:08;4.53;;;2.97;;
38379;SDS011;38377;47.418;18.882;2022-09-21T08:39:34;3.53;;;3.10;;
38379;SDS011;38377;47.418;18.882;2022-09-21T08:42:18;3.80;;;2.83;;
38379;SDS011;38377;47.418;18.882;2022-09-21T08:44:52;3.45;;;3.15;;
38379;SDS011;38377;47.418;18.882;2022-09-21T08:53:05;3.45;;;2.70;;
38379;SDS011;38377;47.418;18.882;2022-09-21T08:55:36;6.82;;;3.17;;
38379;SDS011;38377;47.418;18.882;2022-09-21T08:58:02;4.82;;;3.13;;
38379;SDS011;38377;47.418;18.882;2022-09-21T09:00:28;4.85;;;3.42;;
38379;SDS011;38377;47.418;18.882;2022-09-21T09:08:50;4.78;;;2.83;;
38379;SDS011;38377;47.418;18.882;2022-09-21T09:19:53;3.28;;;2.83;;
38379;SDS011;38377;47.418;18.882;2022-09-21T09:22:24;4.18;;;2.92;;
38379;SDS011;38377;47.418;18.882;2022-09-21T09:25:01;2.75;;;2.55;;
38379;SDS011;38377;47.418;18.882;2022-09-21T09:27:36;4.10;;;2.75;;
38379;SDS011;38377;47.418;18.882;2022-09-21T09:30:21;3.63;;;2.40;;
38379;SDS011;38377;47.418;18.882;2022-09-21T09:35:27;3.15;;;2.85;;
38379;SDS011;38377;47.418;18.882;2022-09-21T09:43:17;3.03;;;2.78;;
38379;SDS011;38377;47.418;18.882;2022-09-21T09:46:31;3.40;;;2.97;;
38379;SDS011;38377;47.418;18.882;2022-09-21T09:52:10;4.03;;;2.97;;
38379;SDS011;38377;47.418;18.882;2022-09-21T09:54:37;2.97;;;2.40;;
38379;SDS011;38377;47.418;18.882;2022-09-21T09:57:03;2.78;;;2.53;;
38379;SDS011;38377;47.418;18.882;2022-09-21T09:59:42;2.75;;;2.20;;
38379;SDS011;38377;47.418;18.882;2022-09-21T10:04:58;2.50;;;2.30;;
38379;SDS011;38377;47.418;18.882;2022-09-21T10:07:37;2.30;;;1.98;;
38379;SDS011;38377;47.418;18.882;2022-09-21T10:10:46;2.53;;;2.30;;
38379;SDS011;38377;47.418;18.882;2022-09-21T10:12:55;3.63;;;2.42;;
38379;SDS011;38377;47.418;18.882;2022-09-21T10:15:28;3.35;;;2.47;;
38379;SDS011;38377;47.418;18.882;2022-09-21T10:18:14;4.32;;;2.40;;
38379;SDS011;38377;47.418;18.882;2022-09-21T10:20:54;2.75;;;2.40;;
38379;SDS011;38377;47.418;18.882;2022-09-21T10:25:55;3.30;;;2.35;;
38379;SDS011;38377;47.418;18.882;2022-09-21T10:28:30;2.80;;;2.10;;
38379;SDS011;38377;47.418;18.882;2022-09-21T10:31:15;2.60;;;2.20;;
38379;SDS011;38377;47.418;18.882;2022-09-21T10:33:53;2.85;;;2.42;;
38379;SDS011;38377;47.418;18.882;2022-09-21T10:36:34;3.28;;;2.28;;
38379;SDS011;38377;47.418;18.882;2022-09-21T10:41:42;3.08;;;2.03;;
38379;SDS011;38377;47.418;18.882;2022-09-21T10:44:14;3.08;;;2.08;;
38379;SDS011;38377;47.418;18.882;2022-09-21T10:46:42;2.30;;;2.00;;
38379;SDS011;38377;47.418;18.882;2022-09-21T10:49:20;2.67;;;2.00;;
38379;SDS011;38377;47.418;18.882;2022-09-21T10:51:51;3.17;;;1.83;;
38379;SDS011;38377;47.418;18.882;2022-09-21T10:54:25;2.58;;;1.60;;
38379;SDS011;38377;47.418;18.882;2022-09-21T10:57:01;3.20;;;2.00;;
38379;SDS011;38377;47.418;18.882;2022-09-21T10:59:31;1.98;;;1.77;;
38379;SDS011;38377;47.418;18.882;2022-09-21T11:01:59;2.42;;;1.50;;
38379;SDS011;38377;47.418;18.882;2022-09-21T11:04:43;2.28;;;1.60;;
38379;SDS011;38377;47.418;18.882;2022-09-21T11:07:23;2.92;;;2.00;;
38379;SDS011;38377;47.418;18.882;2022-09-21T11:12:52;2.17;;;1.98;;
38379;SDS011;38377;47.418;18.882;2022-09-21T11:19:01;2.95;;;2.05;;
38379;SDS011;38377;47.418;18.882;2022-09-21T11:24:16;1.08;;;0.98;;
38379;SDS011;38377;47.418;18.882;2022-09-21T11:26:46;1.98;;;1.10;;
38379;SDS011;38377;47.418;18.882;2022-09-21T11:29:23;1.73;;;1.23;;
38379;SDS011;38377;47.418;18.882;2022-09-21T11:37:49;1.45;;;1.23;;
38379;SDS011;38377;47.418;18.882;2022-09-21T11:40:34;2.58;;;1.20;;
38379;SDS011;38377;47.418;18.882;2022-09-21T11:49:05;1.70;;;0.95;;
38379;SDS011;38377;47.418;18.882;2022-09-21T12:19:11;6.75;;;3.63;;
38379;SDS011;38377;47.418;18.882;2022-09-21T12:24:13;0.82;;;0.60;;
38379;SDS011;38377;47.418;18.882;2022-09-21T12:27:23;0.88;;;0.68;;
38379;SDS011;38377;47.418;18.882;2022-09-21T12:30:15;1.10;;;0.70;;
38379;SDS011;38377;47.418;18.882;2022-09-21T12:32:47;1.15;;;0.88;;
38379;SDS011;38377;47.418;18.882;2022-09-21T12:35:23;2.50;;;1.08;;
38379;SDS011;38377;47.418;18.882;2022-09-21T12:38:08;3.08;;;1.13;;
38379;SDS011;38377;47.418;18.882;2022-09-21T12:40:36;0.75;;;0.63;;
38379;SDS011;38377;47.418;18.882;2022-09-21T12:43:12;1.63;;;0.60;;
38379;SDS011;38377;47.418;18.882;2022-09-21T12:45:41;4.30;;;2.85;;
38379;SDS011;38377;47.418;18.882;2022-09-21T12:48:31;2.92;;;1.08;;
38379;SDS011;38377;47.418;18.882;2022-09-21T12:51:04;1.45;;;0.75;;
38379;SDS011;38377;47.418;18.882;2022-09-21T12:53:41;1.75;;;0.45;;
38379;SDS011;38377;47.418;18.882;2022-09-21T12:59:01;1.40;;;0.60;;
38379;SDS011;38377;47.418;18.882;2022-09-21T13:10:06;0.82;;;0.60;;
38379;SDS011;38377;47.418;18.882;2022-09-21T13:12:40;3.85;;;1.17;;
38379;SDS011;38377;47.418;18.882;2022-09-21T13:15:12;1.27;;;0.93;;
38379;SDS011;38377;47.418;18.882;2022-09-21T13:18:00;2.80;;;1.00;;
38379;SDS011;38377;47.418;18.882;2022-09-21T13:20:37;1.33;;;0.90;;
38379;SDS011;38377;47.418;18.882;2022-09-21T13:23:05;2.13;;;0.73;;
38379;SDS011;38377;47.418;18.882;2022-09-21T13:25:38;1.10;;;0.57;;
38379;SDS011;38377;47.418;18.882;2022-09-21T13:30:40;1.25;;;0.40;;
38379;SDS011;38377;47.418;18.882;2022-09-21T13:40:56;1.30;;;0.60;;
38379;SDS011;38377;47.418;18.882;2022-09-21T13:43:40;2.10;;;0.75;;
38379;SDS011;38377;47.418;18.882;2022-09-21T14:03:25;2.05;;;0.70;;
38379;SDS011;38377;47.418;18.882;2022-09-21T14:05:45;0.43;;;0.30;;
38379;SDS011;38377;47.418;18.882;2022-09-21T14:08:18;1.75;;;0.60;;
38379;SDS011;38377;47.418;18.882;2022-09-21T14:11:29;2.00;;;0.57;;
38379;SDS011;38377;47.418;18.882;2022-09-21T14:27:30;1.00;;;0.50;;
38379;SDS011;38377;47.418;18.882;2022-09-21T14:30:21;2.13;;;0.55;;
38379;SDS011;38377;47.418;18.882;2022-09-21T14:33:00;0.90;;;0.60;;
38379;SDS011;38377;47.418;18.882;2022-09-21T14:35:46;1.23;;;0.60;;
38379;SDS011;38377;47.418;18.882;2022-09-21T14:38:23;1.70;;;0.55;;
38379;SDS011;38377;47.418;18.882;2022-09-21T14:40:55;1.00;;;0.63;;
38379;SDS011;38377;47.418;18.882;2022-09-21T14:43:29;2.15;;;0.57;;
38379;SDS011;38377;47.418;18.882;2022-09-21T14:48:35;2.72;;;0.70;;
38379;SDS011;38377;47.418;18.882;2022-09-21T15:02:11;1.42;;;0.73;;
38379;SDS011;38377;47.418;18.882;2022-09-21T15:04:57;1.10;;;0.70;;
38379;SDS011;38377;47.418;18.882;2022-09-21T15:07:38;2.80;;;2.05;;
38379;SDS011;38377;47.418;18.882;2022-09-21T15:10:27;1.20;;;0.95;;
38379;SDS011;38377;47.418;18.882;2022-09-21T15:13:22;1.52;;;0.88;;
38379;SDS011;38377;47.418;18.882;2022-09-21T15:16:13;0.80;;;0.63;;
38379;SDS011;38377;47.418;18.882;2022-09-21T15:18:46;1.77;;;1.00;;
38379;SDS011;38377;47.418;18.882;2022-09-21T15:21:26;2.22;;;1.23;;
38379;SDS011;38377;47.418;18.882;2022-09-21T15:23:53;1.30;;;1.00;;
38379;SDS011;38377;47.418;18.882;2022-09-21T15:26:24;3.03;;;1.10;;
38379;SDS011;38377;47.418;18.882;2022-09-21T15:28:57;2.05;;;1.55;;
38379;SDS011;38377;47.418;18.882;2022-09-21T15:31:29;2.90;;;2.03;;
38379;SDS011;38377;47.418;18.882;2022-09-21T15:33:57;5.35;;;3.42;;
38379;SDS011;38377;47.418;18.882;2022-09-21T15:36:26;21.67;;;14.27;;
38379;SDS011;38377;47.418;18.882;2022-09-21T15:38:55;5.50;;;3.30;;
38379;SDS011;38377;47.418;18.882;2022-09-21T15:46:42;3.33;;;1.80;;
38379;SDS011;38377;47.418;18.882;2022-09-21T15:49:11;4.30;;;3.13;;
38379;SDS011;38377;47.418;18.882;2022-09-21T15:51:46;1.35;;;1.10;;
38379;SDS011;38377;47.418;18.882;2022-09-21T15:54:20;2.80;;;1.60;;
38379;SDS011;38377;47.418;18.882;2022-09-21T15:57:02;3.45;;;1.40;;
38379;SDS011;38377;47.418;18.882;2022-09-21T15:59:32;2.33;;;2.03;;
38379;SDS011;38377;47.418;18.882;2022-09-21T16:01:59;1.95;;;1.67;;
38379;SDS011;38377;47.418;18.882;2022-09-21T16:04:34;2.20;;;1.75;;
38379;SDS011;38377;47.418;18.882;2022-09-21T16:07:05;4.15;;;2.78;;
38379;SDS011;38377;47.418;18.882;2022-09-21T16:09:43;4.13;;;3.05;;
38379;SDS011;38377;47.418;18.882;2022-09-21T16:14:51;7.50;;;4.85;;
38379;SDS011;38377;47.418;18.882;2022-09-21T16:17:19;4.78;;;3.00;;
38379;SDS011;38377;47.418;18.882;2022-09-21T16:25:02;2.15;;;1.27;;
38379;SDS011;38377;47.418;18.882;2022-09-21T16:27:50;3.00;;;1.27;;
38379;SDS011;38377;47.418;18.882;2022-09-21T16:38:42;2.47;;;1.70;;
38379;SDS011;38377;47.418;18.882;2022-09-21T16:41:09;1.83;;;1.70;;
38379;SDS011;38377;47.418;18.882;2022-09-21T16:43:35;2.50;;;1.60;;
38379;SDS011;38377;47.418;18.882;2022-09-21T16:46:04;1.40;;;1.30;;
38379;SDS011;38377;47.418;18.882;2022-09-21T16:48:32;4.30;;;1.80;;
38379;SDS011;38377;47.418;18.882;2022-09-21T16:50:58;3.20;;;2.13;;
38379;SDS011;38377;47.418;18.882;2022-09-21T16:53:24;2.50;;;1.90;;
38379;SDS011;38377;47.418;18.882;2022-09-21T16:55:50;1.75;;;1.50;;
38379;SDS011;38377;47.418;18.882;2022-09-21T16:58:17;4.45;;;2.60;;
38379;SDS011;38377;47.418;18.882;2022-09-21T17:00:45;2.38;;;1.58;;
38379;SDS011;38377;47.418;18.882;2022-09-21T17:03:13;3.22;;;1.98;;
38379;SDS011;38377;47.418;18.882;2022-09-21T17:05:40;3.13;;;2.00;;
38379;SDS011;38377;47.418;18.882;2022-09-21T17:08:07;3.00;;;1.60;;
38379;SDS011;38377;47.418;18.882;2022-09-21T17:10:42;1.40;;;1.00;;
38379;SDS011;38377;47.418;18.882;2022-09-21T17:13:10;1.92;;;1.33;;
38379;SDS011;38377;47.418;18.882;2022-09-21T17:15:37;2.13;;;1.92;;
38379;SDS011;38377;47.418;18.882;2022-09-21T17:18:09;2.78;;;1.85;;
38379;SDS011;38377;47.418;18.882;2022-09-21T17:20:37;2.00;;;1.30;;
38379;SDS011;38377;47.418;18.882;2022-09-21T17:25:32;1.85;;;1.35;;
38379;SDS011;38377;47.418;18.882;2022-09-21T17:27:59;2.05;;;1.40;;
38379;SDS011;38377;47.418;18.882;2022-09-21T17:30:26;3.13;;;1.90;;
38379;SDS011;38377;47.418;18.882;2022-09-21T17:32:53;2.85;;;1.67;;
38379;SDS011;38377;47.418;18.882;2022-09-21T17:35:30;1.65;;;1.42;;
38379;SDS011;38377;47.418;18.882;2022-09-21T17:38:02;3.63;;;2.00;;
38379;SDS011;38377;47.418;18.882;2022-09-21T17:40:29;2.20;;;1.63;;
38379;SDS011;38377;47.418;18.882;2022-09-21T17:42:59;2.53;;;1.77;;
38379;SDS011;38377;47.418;18.882;2022-09-21T17:45:54;2.40;;;1.80;;
38379;SDS011;38377;47.418;18.882;2022-09-21T17:48:21;4.25;;;2.92;;
38379;SDS011;38377;47.418;18.882;2022-09-21T17:50:47;6.13;;;4.03;;
38379;SDS011;38377;47.418;18.882;2022-09-21T17:53:14;9.93;;;7.70;;
38379;SDS011;38377;47.418;18.882;2022-09-21T17:55:59;4.00;;;3.40;;
38379;SDS011;38377;47.418;18.882;2022-09-21T17:58:57;2.67;;;2.10;;
38379;SDS011;38377;47.418;18.882;2022-09-21T18:01:33;2.70;;;1.90;;
38379;SDS011;38377;47.418;18.882;2022-09-21T18:04:01;3.88;;;1.85;;
38379;SDS011;38377;47.418;18.882;2022-09-21T18:06:28;2.45;;;1.88;;
38379;SDS011;38377;47.418;18.882;2022-09-21T18:08:54;2.22;;;1.60;;
38379;SDS011;38377;47.418;18.882;2022-09-21T18:16:38;2.13;;;1.30;;
38379;SDS011;38377;47.418;18.882;2022-09-21T18:21:43;2.47;;;1.80;;
38379;SDS011;38377;47.418;18.882;2022-09-21T18:24:47;2.80;;;1.70;;
38379;SDS011;38377;47.418;18.882;2022-09-21T18:27:07;2.90;;;1.92;;
38379;SDS011;38377;47.418;18.882;2022-09-21T18:29:34;1.73;;;1.35;;
38379;SDS011;38377;47.418;18.882;2022-09-21T18:39:57;3.30;;;1.65;;
38379;SDS011;38377;47.418;18.882;2022-09-21T18:45:11;3.05;;;1.63;;
38379;SDS011;38377;47.418;18.882;2022-09-21T18:48:09;2.42;;;1.50;;
38379;SDS011;38377;47.418;18.882;2022-09-21T18:50:50;2.53;;;1.75;;
38379;SDS011;38377;47.418;18.882;2022-09-21T18:56:05;2.03;;;1.60;;
38379;SDS011;38377;47.418;18.882;2022-09-21T18:58:33;1.75;;;1.30;;
38379;SDS011;38377;47.418;18.882;2022-09-21T19:01:00;2.28;;;1.40;;
38379;SDS011;38377;47.418;18.882;2022-09-21T19:03:26;2.05;;;1.52;;
38379;SDS011;38377;47.418;18.882;2022-09-21T19:20:08;2.28;;;1.80;;